sensor_id;sensor_type;location;lat;lon;timestamp;pressure;altitude;pressure_sealevel;temperature;humidity
6506;BME280;3286;49.858;8.768;2023-04-21T00:01:10;98921.78;;;10.17;61.86
6506;BME280;3286;49.858;8.768;2023-04-21T00:03:37;98927.66;;;9.66;63.48
6506;BME280;3286;49.858;8.768;2023-04-21T00:06:04;98921.97;;;10.68;59.97
6506;BME280;3286;49.858;8.768;2023-04-21T00:08:31;98921.00;;;10.77;59.48
6506;BME280;3286;49.858;8.768;2023-04-21T00:10:59;98917.84;;;10.21;61.51
6506;BME280;3286;49.858;8.768;2023-04-21T00:13:26;98913.50;;;10.11;61.42
6506;BME280;3286;49.858;8.768;2023-04-21T00:15:53;98901.72;;;9.61;62.86
6506;BME280;3286;49.858;8.768;2023-04-21T00:18:20;98909.41;;;9.73;62.86
6506;BME280;3286;49.858;8.768;2023-04-21T00:20:46;98911.16;;;9.46;64.57
6506;BME280;3286;49.858;8.768;2023-04-21T00:23:13;98910.63;;;9.78;62.34
6506;BME280;3286;49.858;8.768;2023-04-21T00:25:40;98907.28;;;9.94;61.88
6506;BME280;3286;49.858;8.768;2023-04-21T00:28:08;98908.22;;;9.67;62.75
6506;BME280;3286;49.858;8.768;2023-04-21T00:30:34;98904.31;;;9.71;62.38
6506;BME280;3286;49.858;8.768;2023-04-21T00:33:01;98903.00;;;9.75;62.19
6506;BME280;3286;49.858;8.768;2023-04-21T00:35:28;98909.56;;;9.89;62.18
6506;BME280;3286;49.858;8.768;2023-04-21T00:37:55;98908.50;;;9.82;62.48
6506;BME280;3286;49.858;8.768;2023-04-21T00:40:21;98901.81;;;9.69;62.59
6506;BME280;3286;49.858;8.768;2023-04-21T00:42:48;98899.69;;;9.73;62.74
6506;BME280;3286;49.858;8.768;2023-04-21T00:45:17;98902.66;;;10.41;61.20
6506;BME280;3286;49.858;8.768;2023-04-21T00:47:44;98904.34;;;9.79;62.23
6506;BME280;3286;49.858;8.768;2023-04-21T00:50:11;98903.75;;;10.12;61.13
6506;BME280;3286;49.858;8.768;2023-04-21T00:52:38;98896.81;;;10.11;61.38
6506;BME280;3286;49.858;8.768;2023-04-21T00:55:06;98894.44;;;10.26;60.29
6506;BME280;3286;49.858;8.768;2023-04-21T00:57:34;98901.56;;;10.25;61.20
6506;BME280;3286;49.858;8.768;2023-04-21T01:00:01;98889.81;;;10.20;61.29
6506;BME280;3286;49.858;8.768;2023-04-21T01:02:31;98897.13;;;9.81;62.59
6506;BME280;3286;49.858;8.768;2023-04-21T01:04:58;98895.97;;;10.28;61.56
6506;BME280;3286;49.858;8.768;2023-04-21T01:07:25;98890.38;;;10.05;61.94
6506;BME280;3286;49.858;8.768;2023-04-21T01:09:52;98893.63;;;10.25;61.49
6506;BME280;3286;49.858;8.768;2023-04-21T01:12:19;98888.16;;;10.19;60.96
6506;BME280;3286;49.858;8.768;2023-04-21T01:14:46;98890.25;;;10.15;61.56
6506;BME280;3286;49.858;8.768;2023-04-21T01:17:12;98888.47;;;10.15;60.54
6506;BME280;3286;49.858;8.768;2023-04-21T01:19:41;98889.34;;;10.24;61.76
6506;BME280;3286;49.858;8.768;2023-04-21T01:22:10;98892.53;;;10.36;60.70
6506;BME280;3286;49.858;8.768;2023-04-21T01:24:39;98900.50;;;10.18;61.08
6506;BME280;3286;49.858;8.768;2023-04-21T01:27:08;98897.31;;;10.59;60.15
6506;BME280;3286;49.858;8.768;2023-04-21T01:29:36;98897.94;;;10.26;60.78
6506;BME280;3286;49.858;8.768;2023-04-21T01:32:05;98895.22;;;10.18;61.21
6506;BME280;3286;49.858;8.768;2023-04-21T01:34:32;98909.19;;;9.84;62.15
6506;BME280;3286;49.858;8.768;2023-04-21T01:36:59;98892.72;;;10.08;61.41
6506;BME280;3286;49.858;8.768;2023-04-21T01:39:27;98897.50;;;10.13;61.15
6506;BME280;3286;49.858;8.768;2023-04-21T01:41:54;98893.38;;;10.10;61.08
6506;BME280;3286;49.858;8.768;2023-04-21T01:44:22;98879.09;;;10.48;59.96
6506;BME280;3286;49.858;8.768;2023-04-21T01:46:50;98891.25;;;10.14;61.39
6506;BME280;3286;49.858;8.768;2023-04-21T01:49:16;98885.50;;;9.92;61.63
6506;BME280;3286;49.858;8.768;2023-04-21T01:51:43;98884.00;;;10.16;60.99
6506;BME280;3286;49.858;8.768;2023-04-21T01:54:10;98893.56;;;9.91;62.20
6506;BME280;3286;49.858;8.768;2023-04-21T01:56:38;98899.28;;;10.04;61.56
6506;BME280;3286;49.858;8.768;2023-04-21T01:59:05;98888.28;;;9.91;61.20
6506;BME280;3286;49.858;8.768;2023-04-21T02:01:32;98886.81;;;10.14;60.46
6506;BME280;3286;49.858;8.768;2023-04-21T02:04:00;98889.13;;;9.91;61.89
6506;BME280;3286;49.858;8.768;2023-04-21T02:06:26;98891.22;;;9.88;60.75
6506;BME280;3286;49.858;8.768;2023-04-21T02:08:54;98893.38;;;9.84;61.61
6506;BME280;3286;49.858;8.768;2023-04-21T02:11:20;98888.53;;;9.79;62.29
6506;BME280;3286;49.858;8.768;2023-04-21T02:13:50;98888.50;;;9.97;62.11
6506;BME280;3286;49.858;8.768;2023-04-21T02:16:17;98895.53;;;9.70;61.88
6506;BME280;3286;49.858;8.768;2023-04-21T02:18:44;98892.94;;;9.97;61.73
6506;BME280;3286;49.858;8.768;2023-04-21T02:21:11;98900.66;;;10.17;60.84
6506;BME280;3286;49.858;8.768;2023-04-21T02:23:38;98901.59;;;9.81;62.07
6506;BME280;3286;49.858;8.768;2023-04-21T02:26:05;98895.25;;;9.55;62.84
6506;BME280;3286;49.858;8.768;2023-04-21T02:28:31;98892.53;;;9.83;62.52
6506;BME280;3286;49.858;8.768;2023-04-21T02:30:59;98890.66;;;10.20;61.16
6506;BME280;3286;49.858;8.768;2023-04-21T02:33:26;98892.81;;;9.80;62.57
6506;BME280;3286;49.858;8.768;2023-04-21T02:35:53;98898.16;;;9.89;62.16
6506;BME280;3286;49.858;8.768;2023-04-21T02:38:19;98896.53;;;10.14;60.02
6506;BME280;3286;49.858;8.768;2023-04-21T02:40:46;98899.38;;;10.21;60.09
6506;BME280;3286;49.858;8.768;2023-04-21T02:43:15;98902.47;;;9.53;62.25
6506;BME280;3286;49.858;8.768;2023-04-21T02:45:41;98904.31;;;9.71;61.76
6506;BME280;3286;49.858;8.768;2023-04-21T02:48:09;98906.03;;;9.62;62.12
6506;BME280;3286;49.858;8.768;2023-04-21T02:50:36;98898.28;;;9.61;62.34
6506;BME280;3286;49.858;8.768;2023-04-21T02:53:04;98905.94;;;9.90;61.10
6506;BME280;3286;49.858;8.768;2023-04-21T02:55:31;98903.03;;;10.02;60.71
6506;BME280;3286;49.858;8.768;2023-04-21T02:57:57;98902.69;;;10.23;60.47
6506;BME280;3286;49.858;8.768;2023-04-21T03:00:24;98905.22;;;9.44;62.58
6506;BME280;3286;49.858;8.768;2023-04-21T03:02:51;98911.91;;;9.56;62.03
6506;BME280;3286;49.858;8.768;2023-04-21T03:05:19;98911.59;;;9.59;62.50
6506;BME280;3286;49.858;8.768;2023-04-21T03:07:45;98904.91;;;9.65;61.99
6506;BME280;3286;49.858;8.768;2023-04-21T03:10:12;98903.63;;;9.51;62.50
6506;BME280;3286;49.858;8.768;2023-04-21T03:12:39;98911.38;;;9.70;62.04
6506;BME280;3286;49.858;8.768;2023-04-21T03:15:06;98919.16;;;9.72;61.16
6506;BME280;3286;49.858;8.768;2023-04-21T03:17:33;98919.16;;;9.54;61.71
6506;BME280;3286;49.858;8.768;2023-04-21T03:19:59;98922.41;;;9.66;62.31
6506;BME280;3286;49.858;8.768;2023-04-21T03:22:30;98914.63;;;9.64;61.55
6506;BME280;3286;49.858;8.768;2023-04-21T03:24:57;98917.19;;;9.56;61.81
6506;BME280;3286;49.858;8.768;2023-04-21T03:27:23;98906.41;;;9.49;61.91
6506;BME280;3286;49.858;8.768;2023-04-21T03:29:50;98902.19;;;9.56;61.36
6506;BME280;3286;49.858;8.768;2023-04-21T03:32:17;98911.25;;;9.54;61.87
6506;BME280;3286;49.858;8.768;2023-04-21T03:34:43;98904.81;;;9.56;61.43
6506;BME280;3286;49.858;8.768;2023-04-21T03:37:10;98902.88;;;9.22;62.69
6506;BME280;3286;49.858;8.768;2023-04-21T03:39:38;98911.75;;;9.21;63.12
6506;BME280;3286;49.858;8.768;2023-04-21T03:42:05;98907.91;;;9.34;62.72
6506;BME280;3286;49.858;8.768;2023-04-21T03:44:31;98901.72;;;9.25;61.87
6506;BME280;3286;49.858;8.768;2023-04-21T03:46:58;98902.47;;;9.17;61.85
6506;BME280;3286;49.858;8.768;2023-04-21T03:49:27;98905.72;;;9.29;61.11
6506;BME280;3286;49.858;8.768;2023-04-21T03:51:54;98908.13;;;9.59;61.10
6506;BME280;3286;49.858;8.768;2023-04-21T03:54:20;98910.09;;;9.56;60.86
6506;BME280;3286;49.858;8.768;2023-04-21T03:56:48;98901.66;;;9.35;61.37
6506;BME280;3286;49.858;8.768;2023-04-21T03:59:15;98911.81;;;9.11;62.95
6506;BME280;3286;49.858;8.768;2023-04-21T04:01:42;98909.56;;;8.89;63.24
6506;BME280;3286;49.858;8.768;2023-04-21T04:04:08;98915.50;;;9.19;62.23
6506;BME280;3286;49.858;8.768;2023-04-21T04:06:35;98912.19;;;8.89;62.26
6506;BME280;3286;49.858;8.768;2023-04-21T04:09:02;98908.78;;;9.06;62.66
6506;BME280;3286;49.858;8.768;2023-04-21T04:11:29;98903.91;;;9.11;62.29
6506;BME280;3286;49.858;8.768;2023-04-21T04:13:57;98905.34;;;9.42;61.12
6506;BME280;3286;49.858;8.768;2023-04-21T04:16:23;98905.09;;;9.17;61.80
6506;BME280;3286;49.858;8.768;2023-04-21T04:18:50;98902.19;;;9.20;62.07
6506;BME280;3286;49.858;8.768;2023-04-21T04:21:17;98904.25;;;8.70;62.93
6506;BME280;3286;49.858;8.768;2023-04-21T04:23:43;98891.75;;;9.01;61.65
6506;BME280;3286;49.858;8.768;2023-04-21T04:26:10;98898.84;;;9.00;61.72
6506;BME280;3286;49.858;8.768;2023-04-21T04:28:36;98894.38;;;9.01;61.95
6506;BME280;3286;49.858;8.768;2023-04-21T04:31:04;98887.56;;;9.26;61.36
6506;BME280;3286;49.858;8.768;2023-04-21T04:33:31;98895.56;;;8.88;62.06
6506;BME280;3286;49.858;8.768;2023-04-21T04:35:58;98890.66;;;8.75;62.04
6506;BME280;3286;49.858;8.768;2023-04-21T04:38:25;98887.94;;;8.57;62.20
6506;BME280;3286;49.858;8.768;2023-04-21T04:40:53;98897.47;;;8.68;62.31
6506;BME280;3286;49.858;8.768;2023-04-21T04:43:19;98901.66;;;8.89;61.80
6506;BME280;3286;49.858;8.768;2023-04-21T04:45:46;98899.03;;;9.35;60.88
6506;BME280;3286;49.858;8.768;2023-04-21T04:48:14;98900.75;;;9.26;59.94
6506;BME280;3286;49.858;8.768;2023-04-21T04:50:41;98902.56;;;9.25;60.28
6506;BME280;3286;49.858;8.768;2023-04-21T04:53:07;98895.09;;;9.39;60.05
6506;BME280;3286;49.858;8.768;2023-04-21T04:55:34;98891.16;;;9.07;60.22
6506;BME280;3286;49.858;8.768;2023-04-21T04:58:01;98896.63;;;8.95;61.32
6506;BME280;3286;49.858;8.768;2023-04-21T05:00:27;98904.50;;;8.77;61.93
6506;BME280;3286;49.858;8.768;2023-04-21T05:02:55;98904.97;;;8.91;61.75
6506;BME280;3286;49.858;8.768;2023-04-21T05:05:24;98901.94;;;8.86;62.11
6506;BME280;3286;49.858;8.768;2023-04-21T05:07:50;98897.94;;;8.81;62.22
6506;BME280;3286;49.858;8.768;2023-04-21T05:10:17;98890.50;;;9.41;60.80
6506;BME280;3286;49.858;8.768;2023-04-21T05:12:43;98895.69;;;9.15;61.27
6506;BME280;3286;49.858;8.768;2023-04-21T05:15:10;98902.34;;;8.91;62.28
6506;BME280;3286;49.858;8.768;2023-04-21T05:17:37;98908.28;;;8.93;61.37
6506;BME280;3286;49.858;8.768;2023-04-21T05:20:04;98910.69;;;9.32;61.14
6506;BME280;3286;49.858;8.768;2023-04-21T05:22:35;98910.56;;;9.06;61.03
6506;BME280;3286;49.858;8.768;2023-04-21T05:25:02;98909.31;;;9.28;61.22
6506;BME280;3286;49.858;8.768;2023-04-21T05:27:29;98913.59;;;9.11;61.58
6506;BME280;3286;49.858;8.768;2023-04-21T05:29:56;98907.59;;;8.91;61.71
6506;BME280;3286;49.858;8.768;2023-04-21T05:32:22;98903.53;;;9.24;60.65
6506;BME280;3286;49.858;8.768;2023-04-21T05:34:49;98898.03;;;9.36;60.94
6506;BME280;3286;49.858;8.768;2023-04-21T05:37:15;98897.06;;;9.19;60.75
6506;BME280;3286;49.858;8.768;2023-04-21T05:39:43;98904.91;;;9.28;61.52
6506;BME280;3286;49.858;8.768;2023-04-21T05:42:10;98911.59;;;8.95;62.21
6506;BME280;3286;49.858;8.768;2023-04-21T05:44:37;98908.41;;;9.01;62.73
6506;BME280;3286;49.858;8.768;2023-04-21T05:47:04;98909.28;;;9.38;61.49
6506;BME280;3286;49.858;8.768;2023-04-21T05:49:30;98914.25;;;9.77;60.54
6506;BME280;3286;49.858;8.768;2023-04-21T05:51:57;98905.41;;;9.68;60.13
6506;BME280;3286;49.858;8.768;2023-04-21T05:54:24;98908.53;;;9.64;60.47
6506;BME280;3286;49.858;8.768;2023-04-21T05:56:52;98914.91;;;9.61;60.92
6506;BME280;3286;49.858;8.768;2023-04-21T05:59:18;98914.00;;;9.70;61.47
6506;BME280;3286;49.858;8.768;2023-04-21T06:01:45;98909.16;;;10.02;60.31
6506;BME280;3286;49.858;8.768;2023-04-21T06:04:12;98908.28;;;10.20;59.30
6506;BME280;3286;49.858;8.768;2023-04-21T06:06:38;98906.00;;;10.25;59.32
6506;BME280;3286;49.858;8.768;2023-04-21T06:09:05;98902.69;;;10.23;58.91
6506;BME280;3286;49.858;8.768;2023-04-21T06:11:32;98901.56;;;10.52;58.63
6506;BME280;3286;49.858;8.768;2023-04-21T06:14:00;98910.97;;;10.28;59.52
6506;BME280;3286;49.858;8.768;2023-04-21T06:16:26;98913.91;;;10.43;59.69
6506;BME280;3286;49.858;8.768;2023-04-21T06:18:56;98912.66;;;10.11;59.39
6506;BME280;3286;49.858;8.768;2023-04-21T06:21:23;98918.25;;;10.08;59.61
6506;BME280;3286;49.858;8.768;2023-04-21T06:23:50;98909.53;;;10.60;59.06
6506;BME280;3286;49.858;8.768;2023-04-21T06:26:16;98914.81;;;10.07;60.07
6506;BME280;3286;49.858;8.768;2023-04-21T06:28:43;98904.25;;;10.34;59.08
6506;BME280;3286;49.858;8.768;2023-04-21T06:31:12;98903.97;;;10.19;59.86
6506;BME280;3286;49.858;8.768;2023-04-21T06:33:40;98913.59;;;10.28;59.00
6506;BME280;3286;49.858;8.768;2023-04-21T06:36:07;98914.53;;;9.74;61.01
6506;BME280;3286;49.858;8.768;2023-04-21T06:38:33;98908.00;;;10.31;59.40
6506;BME280;3286;49.858;8.768;2023-04-21T06:41:00;98906.41;;;10.38;59.44
6506;BME280;3286;49.858;8.768;2023-04-21T06:43:28;98908.94;;;10.40;59.32
6506;BME280;3286;49.858;8.768;2023-04-21T06:45:55;98916.31;;;10.63;58.51
6506;BME280;3286;49.858;8.768;2023-04-21T06:48:23;98916.16;;;10.64;59.40
6506;BME280;3286;49.858;8.768;2023-04-21T06:50:50;98918.59;;;10.92;58.72
6506;BME280;3286;49.858;8.768;2023-04-21T06:53:17;98909.84;;;11.00;57.51
6506;BME280;3286;49.858;8.768;2023-04-21T06:55:46;98912.19;;;10.68;59.08
6506;BME280;3286;49.858;8.768;2023-04-21T06:58:13;98914.41;;;10.47;59.30
6506;BME280;3286;49.858;8.768;2023-04-21T07:00:39;98912.22;;;10.77;58.99
6506;BME280;3286;49.858;8.768;2023-04-21T07:03:06;98906.59;;;11.14;58.47
6506;BME280;3286;49.858;8.768;2023-04-21T07:05:34;98909.72;;;11.10;58.19
6506;BME280;3286;49.858;8.768;2023-04-21T07:08:01;98910.91;;;11.15;57.83
6506;BME280;3286;49.858;8.768;2023-04-21T07:10:28;98909.25;;;11.31;57.74
6506;BME280;3286;49.858;8.768;2023-04-21T07:12:55;98910.97;;;11.65;57.22
6506;BME280;3286;49.858;8.768;2023-04-21T07:15:21;98903.19;;;11.55;57.23
6506;BME280;3286;49.858;8.768;2023-04-21T07:17:48;98890.78;;;11.97;56.80
6506;BME280;3286;49.858;8.768;2023-04-21T07:20:14;98896.25;;;11.71;57.33
6506;BME280;3286;49.858;8.768;2023-04-21T07:22:44;98904.38;;;11.86;57.25
6506;BME280;3286;49.858;8.768;2023-04-21T07:25:11;98902.53;;;12.20;56.53
6506;BME280;3286;49.858;8.768;2023-04-21T07:27:37;98897.06;;;12.29;56.31
6506;BME280;3286;49.858;8.768;2023-04-21T07:30:05;98893.63;;;12.04;56.50
6506;BME280;3286;49.858;8.768;2023-04-21T07:32:32;98898.72;;;11.97;56.37
6506;BME280;3286;49.858;8.768;2023-04-21T07:35:00;98910.97;;;11.98;56.11
6506;BME280;3286;49.858;8.768;2023-04-21T07:37:27;98912.13;;;12.21;56.34
6506;BME280;3286;49.858;8.768;2023-04-21T07:39:55;98906.13;;;12.35;56.09
6506;BME280;3286;49.858;8.768;2023-04-21T07:42:22;98898.09;;;12.03;56.69
6506;BME280;3286;49.858;8.768;2023-04-21T07:44:49;98894.25;;;11.98;57.02
6506;BME280;3286;49.858;8.768;2023-04-21T07:47:17;98889.78;;;11.98;56.65
6506;BME280;3286;49.858;8.768;2023-04-21T07:49:43;98890.94;;;12.21;56.21
6506;BME280;3286;49.858;8.768;2023-04-21T07:52:10;98882.06;;;12.05;56.31
6506;BME280;3286;49.858;8.768;2023-04-21T07:54:36;98893.94;;;11.76;57.81
6506;BME280;3286;49.858;8.768;2023-04-21T07:57:04;98884.50;;;12.07;57.31
6506;BME280;3286;49.858;8.768;2023-04-21T07:59:31;98894.72;;;12.35;56.99
6506;BME280;3286;49.858;8.768;2023-04-21T08:01:58;98894.91;;;12.81;55.12
6506;BME280;3286;49.858;8.768;2023-04-21T08:04:24;98899.09;;;12.67;55.80
6506;BME280;3286;49.858;8.768;2023-04-21T08:06:51;98899.28;;;12.66;56.21
6506;BME280;3286;49.858;8.768;2023-04-21T08:09:18;98893.69;;;12.92;55.69
6506;BME280;3286;49.858;8.768;2023-04-21T08:11:44;98896.66;;;12.97;55.36
6506;BME280;3286;49.858;8.768;2023-04-21T08:14:13;98899.56;;;13.11;55.16
6506;BME280;3286;49.858;8.768;2023-04-21T08:16:39;98890.06;;;13.48;54.26
6506;BME280;3286;49.858;8.768;2023-04-21T08:19:06;98897.69;;;13.51;53.82
6506;BME280;3286;49.858;8.768;2023-04-21T08:21:34;98893.41;;;13.88;53.62
6506;BME280;3286;49.858;8.768;2023-04-21T08:24:00;98894.69;;;13.54;54.09
6506;BME280;3286;49.858;8.768;2023-04-21T08:26:27;98885.88;;;14.15;51.96
6506;BME280;3286;49.858;8.768;2023-04-21T08:28:54;98881.22;;;14.32;52.38
6506;BME280;3286;49.858;8.768;2023-04-21T08:31:22;98879.75;;;14.30;52.51
6506;BME280;3286;49.858;8.768;2023-04-21T08:33:49;98880.84;;;14.20;52.62
6506;BME280;3286;49.858;8.768;2023-04-21T08:36:15;98875.06;;;14.62;51.68
6506;BME280;3286;49.858;8.768;2023-04-21T08:38:43;98867.56;;;14.51;52.29
6506;BME280;3286;49.858;8.768;2023-04-21T08:41:09;98872.50;;;14.39;52.77
6506;BME280;3286;49.858;8.768;2023-04-21T08:43:36;98878.47;;;14.56;52.19
6506;BME280;3286;49.858;8.768;2023-04-21T08:46:06;98874.97;;;14.40;51.77
6506;BME280;3286;49.858;8.768;2023-04-21T08:48:35;98866.94;;;14.33;52.86
6506;BME280;3286;49.858;8.768;2023-04-21T08:51:04;98869.28;;;14.13;52.64
6506;BME280;3286;49.858;8.768;2023-04-21T08:53:31;98870.56;;;14.17;52.55
6506;BME280;3286;49.858;8.768;2023-04-21T08:55:57;98867.41;;;13.99;53.17
6506;BME280;3286;49.858;8.768;2023-04-21T08:58:24;98863.75;;;13.46;54.72
6506;BME280;3286;49.858;8.768;2023-04-21T09:00:50;98858.56;;;13.22;54.98
6506;BME280;3286;49.858;8.768;2023-04-21T09:03:21;98857.94;;;14.34;52.57
6506;BME280;3286;49.858;8.768;2023-04-21T09:05:58;98863.63;;;14.31;53.33
6506;BME280;3286;49.858;8.768;2023-04-21T09:08:25;98863.81;;;14.45;52.85
6506;BME280;3286;49.858;8.768;2023-04-21T09:10:53;98863.00;;;14.29;53.31
6506;BME280;3286;49.858;8.768;2023-04-21T09:13:20;98873.31;;;14.84;52.06
6506;BME280;3286;49.858;8.768;2023-04-21T09:15:49;98872.41;;;14.32;53.93
6506;BME280;3286;49.858;8.768;2023-04-21T09:18:17;98879.09;;;14.88;52.21
6506;BME280;3286;49.858;8.768;2023-04-21T09:20:46;98882.13;;;14.85;52.21
6506;BME280;3286;49.858;8.768;2023-04-21T09:23:14;98882.19;;;15.06;51.21
6506;BME280;3286;49.858;8.768;2023-04-21T09:25:41;98880.88;;;15.17;50.83
6506;BME280;3286;49.858;8.768;2023-04-21T09:28:09;98883.03;;;14.92;51.88
6506;BME280;3286;49.858;8.768;2023-04-21T09:30:36;98887.88;;;14.13;52.62
6506;BME280;3286;49.858;8.768;2023-04-21T09:33:04;98895.31;;;13.80;53.98
6506;BME280;3286;49.858;8.768;2023-04-21T09:35:32;98889.34;;;14.16;53.65
6506;BME280;3286;49.858;8.768;2023-04-21T09:38:00;98890.44;;;14.07;54.37
6506;BME280;3286;49.858;8.768;2023-04-21T09:40:29;98884.16;;;14.38;54.54
6506;BME280;3286;49.858;8.768;2023-04-21T09:42:56;98884.06;;;14.91;52.44
6506;BME280;3286;49.858;8.768;2023-04-21T09:45:24;98881.41;;;15.13;52.61
6506;BME280;3286;49.858;8.768;2023-04-21T09:47:54;98867.88;;;15.73;51.24
6506;BME280;3286;49.858;8.768;2023-04-21T09:50:21;98877.75;;;15.57;51.08
6506;BME280;3286;49.858;8.768;2023-04-21T09:52:51;98868.97;;;15.35;51.74
6506;BME280;3286;49.858;8.768;2023-04-21T09:55:21;98879.53;;;14.91;52.59
6506;BME280;3286;49.858;8.768;2023-04-21T09:57:51;98874.78;;;15.67;51.54
6506;BME280;3286;49.858;8.768;2023-04-21T10:00:20;98872.31;;;15.22;51.27
6506;BME280;3286;49.858;8.768;2023-04-21T10:02:52;98864.97;;;15.46;51.02
6506;BME280;3286;49.858;8.768;2023-04-21T10:05:20;98866.94;;;15.15;52.01
6506;BME280;3286;49.858;8.768;2023-04-21T10:07:47;98867.63;;;15.24;52.08
6506;BME280;3286;49.858;8.768;2023-04-21T10:10:20;98867.50;;;13.90;56.19
6506;BME280;3286;49.858;8.768;2023-04-21T10:12:49;98866.63;;;14.58;53.82
6506;BME280;3286;49.858;8.768;2023-04-21T10:15:33;98857.59;;;15.04;53.40
6506;BME280;3286;49.858;8.768;2023-04-21T10:18:14;98848.53;;;16.14;50.74
6506;BME280;3286;49.858;8.768;2023-04-21T10:20:52;98847.78;;;15.48;51.29
6506;BME280;3286;49.858;8.768;2023-04-21T10:23:27;98839.63;;;15.78;51.13
6506;BME280;3286;49.858;8.768;2023-04-21T10:26:00;98849.72;;;15.83;50.97
6506;BME280;3286;49.858;8.768;2023-04-21T10:28:51;98851.09;;;16.01;51.29
6506;BME280;3286;49.858;8.768;2023-04-21T10:31:23;98852.38;;;16.40;50.30
6506;BME280;3286;49.858;8.768;2023-04-21T10:34:16;98847.47;;;16.44;50.56
6506;BME280;3286;49.858;8.768;2023-04-21T10:37:09;98850.47;;;16.69;49.02
6506;BME280;3286;49.858;8.768;2023-04-21T10:39:42;98845.38;;;16.39;50.63
6506;BME280;3286;49.858;8.768;2023-04-21T10:42:21;98842.97;;;16.93;50.33
6506;BME280;3286;49.858;8.768;2023-04-21T10:45:09;98842.81;;;17.01;50.11
6506;BME280;3286;49.858;8.768;2023-04-21T10:47:39;98828.06;;;16.63;49.67
6506;BME280;3286;49.858;8.768;2023-04-21T10:50:24;98832.66;;;15.77;51.97
6506;BME280;3286;49.858;8.768;2023-04-21T10:52:56;98830.31;;;15.61;53.22
6506;BME280;3286;49.858;8.768;2023-04-21T10:55:28;98837.59;;;15.81;52.33
6506;BME280;3286;49.858;8.768;2023-04-21T10:57:54;98823.97;;;16.19;50.66
6506;BME280;3286;49.858;8.768;2023-04-21T11:00:24;98839.09;;;16.47;51.41
6506;BME280;3286;49.858;8.768;2023-04-21T11:02:53;98821.56;;;16.31;50.69
6506;BME280;3286;49.858;8.768;2023-04-21T11:05:26;98823.66;;;16.42;50.72
6506;BME280;3286;49.858;8.768;2023-04-21T11:08:01;98826.66;;;16.26;51.86
6506;BME280;3286;49.858;8.768;2023-04-21T11:10:28;98821.22;;;16.05;51.16
6506;BME280;3286;49.858;8.768;2023-04-21T11:12:56;98820.25;;;16.55;50.26
6506;BME280;3286;49.858;8.768;2023-04-21T11:15:24;98819.19;;;15.86;50.84
6506;BME280;3286;49.858;8.768;2023-04-21T11:17:51;98814.63;;;16.01;50.19
6506;BME280;3286;49.858;8.768;2023-04-21T11:20:17;98816.06;;;15.97;51.10
6506;BME280;3286;49.858;8.768;2023-04-21T11:22:44;98813.16;;;15.92;49.99
6506;BME280;3286;49.858;8.768;2023-04-21T11:25:16;98811.03;;;16.16;50.42
6506;BME280;3286;49.858;8.768;2023-04-21T11:27:52;98805.97;;;16.76;49.32
6506;BME280;3286;49.858;8.768;2023-04-21T11:30:19;98798.22;;;16.95;49.44
6506;BME280;3286;49.858;8.768;2023-04-21T11:32:52;98802.97;;;16.09;49.67
6506;BME280;3286;49.858;8.768;2023-04-21T11:35:19;98797.22;;;16.96;48.47
6506;BME280;3286;49.858;8.768;2023-04-21T11:37:48;98805.97;;;16.76;50.18
6506;BME280;3286;49.858;8.768;2023-04-21T11:40:15;98796.56;;;16.32;50.05
6506;BME280;3286;49.858;8.768;2023-04-21T11:42:43;98793.44;;;15.64;51.49
6506;BME280;3286;49.858;8.768;2023-04-21T11:45:15;98797.63;;;15.74;51.72
6506;BME280;3286;49.858;8.768;2023-04-21T11:47:42;98797.13;;;16.27;50.31
6506;BME280;3286;49.858;8.768;2023-04-21T11:50:10;98789.59;;;16.93;49.56
6506;BME280;3286;49.858;8.768;2023-04-21T11:52:37;98794.81;;;16.59;50.22
6506;BME280;3286;49.858;8.768;2023-04-21T11:55:05;98788.53;;;15.90;51.88
6506;BME280;3286;49.858;8.768;2023-04-21T11:57:32;98790.84;;;14.99;52.51
6506;BME280;3286;49.858;8.768;2023-04-21T12:00:02;98787.72;;;15.39;52.01
6506;BME280;3286;49.858;8.768;2023-04-21T12:02:31;98783.16;;;15.33;52.43
6506;BME280;3286;49.858;8.768;2023-04-21T12:05:02;98786.84;;;15.54;52.69
6506;BME280;3286;49.858;8.768;2023-04-21T12:07:32;98774.00;;;15.35;52.13
6506;BME280;3286;49.858;8.768;2023-04-21T12:10:00;98769.31;;;15.66;51.36
6506;BME280;3286;49.858;8.768;2023-04-21T12:12:28;98776.16;;;16.11;49.89
6506;BME280;3286;49.858;8.768;2023-04-21T12:14:54;98777.00;;;15.54;50.85
6506;BME280;3286;49.858;8.768;2023-04-21T12:17:21;98774.31;;;16.60;48.57
6506;BME280;3286;49.858;8.768;2023-04-21T12:19:48;98782.94;;;15.56;51.13
6506;BME280;3286;49.858;8.768;2023-04-21T12:22:17;98773.44;;;15.75;49.97
6506;BME280;3286;49.858;8.768;2023-04-21T12:24:45;98776.69;;;15.42;51.79
6506;BME280;3286;49.858;8.768;2023-04-21T12:27:12;98772.41;;;15.98;50.14
6506;BME280;3286;49.858;8.768;2023-04-21T12:29:39;98776.66;;;16.28;50.34
6506;BME280;3286;49.858;8.768;2023-04-21T12:32:07;98774.00;;;16.28;49.16
6506;BME280;3286;49.858;8.768;2023-04-21T12:34:34;98774.06;;;14.77;52.95
6506;BME280;3286;49.858;8.768;2023-04-21T12:37:01;98767.09;;;15.98;50.23
6506;BME280;3286;49.858;8.768;2023-04-21T12:39:28;98763.09;;;15.87;50.82
6506;BME280;3286;49.858;8.768;2023-04-21T12:41:56;98761.41;;;16.15;48.65
6506;BME280;3286;49.858;8.768;2023-04-21T12:44:23;98758.41;;;15.61;49.81
6506;BME280;3286;49.858;8.768;2023-04-21T12:46:52;98758.53;;;16.10;49.78
6506;BME280;3286;49.858;8.768;2023-04-21T12:49:19;98753.44;;;16.70;49.62
6506;BME280;3286;49.858;8.768;2023-04-21T12:51:46;98746.28;;;18.05;46.75
6506;BME280;3286;49.858;8.768;2023-04-21T12:54:12;98733.34;;;19.19;43.23
6506;BME280;3286;49.858;8.768;2023-04-21T12:56:40;98730.00;;;18.91;44.06
6506;BME280;3286;49.858;8.768;2023-04-21T12:59:09;98731.63;;;18.15;45.94
6506;BME280;3286;49.858;8.768;2023-04-21T13:01:36;98733.63;;;18.33;45.51
6506;BME280;3286;49.858;8.768;2023-04-21T13:04:03;98726.84;;;17.58;45.79
6506;BME280;3286;49.858;8.768;2023-04-21T13:06:30;98733.63;;;17.47;46.40
6506;BME280;3286;49.858;8.768;2023-04-21T13:08:58;98728.47;;;17.45;45.77
6506;BME280;3286;49.858;8.768;2023-04-21T13:11:25;98720.38;;;17.99;44.92
6506;BME280;3286;49.858;8.768;2023-04-21T13:13:51;98721.91;;;17.07;46.18
6506;BME280;3286;49.858;8.768;2023-04-21T13:16:19;98721.72;;;17.16;45.79
6506;BME280;3286;49.858;8.768;2023-04-21T13:18:46;98721.09;;;17.20;47.46
6506;BME280;3286;49.858;8.768;2023-04-21T13:21:13;98715.91;;;16.78;47.11
6506;BME280;3286;49.858;8.768;2023-04-21T13:23:40;98716.78;;;17.13;45.44
6506;BME280;3286;49.858;8.768;2023-04-21T13:26:07;98710.31;;;16.66;46.40
6506;BME280;3286;49.858;8.768;2023-04-21T13:28:34;98712.47;;;17.18;46.50